Portada
METAR-TAF:

METAR-TAF

Aeroports :

Aeroport Internacional de Xangai-Pudong

Xangai-Pudong, Xina

latitud: 31-07N, longitud: 121-46E, altitud: 4 m

Observació

L'informe es va fer fa 13 minuts, a les 21:00 UTC
Vent 10 kt del Est
Temperatura 28°C
Humitat 94%
Pressió 1005 hPa
Visibilitat 10 km o més
Escasses núvols a una alçada de 1000 ft
Cel ennuvolat a una alçada de 2000 ft

METAR: ZSPD 142100Z 09005MPS 9999 FEW010 BKN020 28/27 Q1005 NOSIG

Hora: 05:13 (21:13 UTC)

Pronòstic

L'informe es va fer fa 6 hores i 1 minuts, a les 15:12 UTC
Pronòstic vàlid del 14 a les 18 UTC al 15 a les 18 UTC
Vent 12 kt del Est
Visibilitat: 6000 m
Cel ennuvolat a una alçada de 1500 ft
Evolucionant progressivament
l' 15 a les 00 UTC al 15 a les 02 UTC
Vent 14 kt del Est/Nord-Est

TAF: ZSPD 141512Z 1418/1518 10006MPS 6000 BKN015 TX32/1506Z TN27/1421Z BECMG 1500/1502 06007MPS

Observacions i pronòstics meteorològics de més de 4000 aeroports (METAR i TAF).

Les estacions disponibles són els punts grocs i vermells al mapa.

Posi el ratolí al punt desitjat per veure el nom de l'estació.

Feu clic per veure les observacions i els pronòstics meteorològics.

Per canviar el mapa: feu clic els botons verds amb una creu de color negre per apropar; al botó verd amb un guió per allunyar la imatge; o en les fletxes verdes per a mapes adjacents.


METAR-TAF: